This is the latest recevied weather packets stored in our database for station/object VK5FR. If no packets are shown the sender has not sent any weather packets the latest 10 day(s).
| Time | Temp. | Humidity | Pressure | Rain* | Wind** | Luminosity | Snow |
|---|---|---|---|---|---|---|---|
| 1777622424 | 24.44° C | 48% | 1011.7 hPa | 0 mm | - | - | - |
| 1777622121 | 24.44° C | 49% | 1011.7 hPa | 0 mm | - | - | - |
| 1777621815 | 23.89° C | 53% | 1011.7 hPa | 0 mm | - | - | - |
| 1777621507 | 23.89° C | 55% | 1011.6 hPa | 0 mm | - | - | - |
| 1777621204 | 23.89° C | 55% | 1012 hPa | 0 mm | - | - | - |
| 1777620900 | 23.89° C | 56% | 1011.9 hPa | 0 mm | - | - | - |
| 1777620595 | 23.89° C | 56% | 1011.8 hPa | 0 mm | - | - | - |
| 1777620292 | 23.89° C | 53% | 1011.8 hPa | 0 mm | - | - | - |
| 1777619988 | 23.33° C | 59% | 1011.8 hPa | 0 mm | - | - | - |
| 1777619685 | 23.89° C | 58% | 1011.8 hPa | 0 mm | - | - | - |
| 1777619379 | 23.33° C | 58% | 1012 hPa | 0 mm | - | - | - |
| 1777619078 | 23.33° C | 60% | 1011.6 hPa | 0 mm | - | - | - |
| 1777618773 | 23.33° C | 59% | 1012 hPa | 0 mm | - | - | - |
| 1777618469 | 23.33° C | 59% | 1011.8 hPa | 0 mm | - | - | - |
| 1777618166 | 23.89° C | 57% | 1012 hPa | 0 mm | - | - | - |
| 1777617862 | 23.89° C | 57% | 1012.2 hPa | 0 mm | - | - | - |
| 1777617562 | 23.89° C | 56% | 1012.1 hPa | 0 mm | - | - | - |
| 1777617260 | 23.89° C | 57% | 1012.4 hPa | 0 mm | - | - | - |
| 1777616957 | 23.89° C | 56% | 1012.4 hPa | 0 mm | - | - | - |
| 1777616653 | 23.89° C | 57% | 1012.1 hPa | 0 mm | - | - | - |
| 1777616347 | 23.89° C | 57% | 1012.3 hPa | 0 mm | - | - | - |
| 1777616044 | 24.44° C | 56% | 1012.3 hPa | 0 mm | - | - | - |
| 1777615741 | 24.44° C | 55% | 1012.5 hPa | 0 mm | - | - | - |
| 1777615438 | 25° C | 54% | 1012.2 hPa | 0 mm | - | - | - |
| 1777615137 | 25° C | 52% | 1012.3 hPa | 0 mm | - | - | - |
* Rain latest hour (hover to see other rain measurements)
** Current wind speed in m/s (hover to see current wind gust speed)